createdAt,value
2023-02-11T00:02:29.602Z,66.30
2023-02-11T00:05:01.868Z,66.03
2023-02-11T00:07:43.976Z,61.17
2023-02-11T00:10:11.998Z,66.53
2023-02-11T00:12:45.461Z,60.77
2023-02-11T00:15:16.076Z,63.40
2023-02-11T00:17:46.258Z,65.80
2023-02-11T00:20:13.596Z,66.67
2023-02-11T00:22:41.471Z,57.40
2023-02-11T00:25:08.928Z,50.47
2023-02-11T00:27:37.478Z,52.37
2023-02-11T00:30:06.842Z,48.97
2023-02-11T00:32:34.570Z,49.60
2023-02-11T00:35:01.865Z,52.57
2023-02-11T00:37:29.252Z,46.53
2023-02-11T00:39:59.294Z,47.97
2023-02-11T00:42:27.610Z,42.30
2023-02-11T00:44:55.123Z,45.50
2023-02-11T00:47:24.549Z,40.20
2023-02-11T00:49:54.201Z,46.83
2023-02-11T00:52:21.579Z,40.90
2023-02-11T00:54:48.872Z,45.53
2023-02-11T00:57:16.298Z,44.70
2023-02-11T00:59:43.650Z,45.93
2023-02-11T01:02:13.196Z,45.43
2023-02-11T01:04:45.138Z,46.47
2023-02-11T01:07:31.398Z,46.37
2023-02-11T01:10:03.087Z,49.83
2023-02-11T01:12:30.768Z,52.47
2023-02-11T01:15:00.094Z,50.47
2023-02-11T01:17:27.605Z,50.57
2023-02-11T01:20:03.995Z,49.57
2023-02-11T01:22:36.384Z,48.50
2023-02-11T01:25:09.216Z,44.23
2023-02-11T01:27:37.548Z,53.80
2023-02-11T01:30:10.740Z,49.23
2023-02-11T01:32:41.634Z,48.30
2023-02-11T01:35:20.484Z,48.57
2023-02-11T01:37:51.581Z,44.97
2023-02-11T01:40:28.440Z,47.80
2023-02-11T01:42:58.078Z,44.97
2023-02-11T01:46:06.747Z,49.03
2023-02-11T01:48:37.217Z,43.87
2023-02-11T01:51:11.647Z,41.80
2023-02-11T01:53:58.467Z,45.00
2023-02-11T01:56:50.423Z,44.27
2023-02-11T01:59:21.506Z,45.47
2023-02-11T02:01:54.733Z,39.10
2023-02-11T02:04:27.431Z,42.93
2023-02-11T02:07:03.446Z,42.23
2023-02-11T02:09:34.079Z,39.73
2023-02-11T02:12:04.811Z,43.87
2023-02-11T02:14:32.521Z,47.33
2023-02-11T02:16:59.917Z,44.67
2023-02-11T02:19:30.020Z,40.90
2023-02-11T02:22:00.425Z,43.10
2023-02-11T02:24:49.688Z,41.80
2023-02-11T02:27:35.494Z,46.77
2023-02-11T02:30:17.112Z,45.20
2023-02-11T02:32:54.682Z,42.17
2023-02-11T02:35:30.760Z,46.90
2023-02-11T02:38:02.344Z,49.47
2023-02-11T02:40:37.624Z,48.50
2023-02-11T02:43:16.064Z,47.03
2023-02-11T02:45:46.854Z,45.93
2023-02-11T02:48:28.442Z,45.80
2023-02-11T02:51:04.035Z,44.60
2023-02-11T02:53:31.754Z,41.47
2023-02-11T02:56:00.493Z,41.67
2023-02-11T02:58:47.482Z,40.97
2023-02-11T03:01:36.623Z,44.77
2023-02-11T03:04:22.945Z,42.23
2023-02-11T03:07:00.015Z,41.60
2023-02-11T03:09:32.934Z,36.03
2023-02-11T03:12:03.909Z,42.03
2023-02-11T03:14:48.630Z,37.37
2023-02-11T03:17:44.574Z,36.97
2023-02-11T03:21:05.861Z,35.53
2023-02-11T03:24:01.201Z,39.13
2023-02-11T03:26:30.868Z,35.83
2023-02-11T03:29:19.149Z,38.03
2023-02-11T03:32:01.479Z,34.57
2023-02-11T03:34:37.976Z,36.40
2023-02-11T03:37:18.127Z,34.37
2023-02-11T03:42:33.786Z,32.70
2023-02-11T03:45:07.107Z,34.27
2023-02-11T03:47:37.568Z,36.40
2023-02-11T03:50:06.986Z,35.40
2023-02-11T03:52:49.311Z,34.60
2023-02-11T03:55:24.142Z,31.63
2023-02-11T03:57:57.520Z,35.50
2023-02-11T04:00:36.772Z,40.60
2023-02-11T04:03:04.968Z,37.53
2023-02-11T04:05:33.457Z,35.07
2023-02-11T04:08:01.610Z,36.87
2023-02-11T04:10:31.138Z,37.93
2023-02-11T04:12:59.925Z,38.83
2023-02-11T04:15:28.502Z,42.03
2023-02-11T04:17:55.791Z,38.80
2023-02-11T04:20:24.938Z,41.73
2023-02-11T04:22:55.010Z,43.17
2023-02-11T04:25:22.349Z,41.60
2023-02-11T04:27:49.677Z,39.87
2023-02-11T04:30:16.936Z,40.73
2023-02-11T04:32:44.384Z,40.03
2023-02-11T04:35:12.328Z,39.90
2023-02-11T04:37:42.769Z,43.83
2023-02-11T04:40:11.755Z,42.00
2023-02-11T04:42:40.337Z,42.70
2023-02-11T04:45:28.856Z,43.13
2023-02-11T04:47:59.054Z,44.93
2023-02-11T04:50:37.640Z,42.90
2023-02-11T04:53:30.875Z,47.30
2023-02-11T04:55:59.781Z,42.27
2023-02-11T04:58:27.196Z,42.87
2023-02-11T05:00:54.617Z,43.90
2023-02-11T05:03:21.946Z,43.30
2023-02-11T05:05:51.840Z,44.60
2023-02-11T05:08:19.401Z,46.73
2023-02-11T05:10:51.491Z,43.37
2023-02-11T05:13:19.271Z,44.17
2023-02-11T05:15:46.584Z,44.40
2023-02-11T05:18:15.380Z,42.03
2023-02-11T05:20:43.794Z,44.73
2023-02-11T05:23:11.433Z,45.83
2023-02-11T05:25:39.120Z,46.13
2023-02-11T05:28:07.823Z,45.83
2023-02-11T05:33:19.421Z,49.03
2023-02-11T05:35:49.535Z,52.80
2023-02-11T05:38:18.091Z,47.80
2023-02-11T05:40:48.267Z,43.13
2023-02-11T05:43:15.779Z,46.80
2023-02-11T05:45:43.093Z,49.03
2023-02-11T05:48:10.740Z,45.67
2023-02-11T05:51:10.249Z,45.60
2023-02-11T05:53:38.422Z,48.77
2023-02-11T05:56:05.972Z,46.57
2023-02-11T05:58:33.438Z,45.03
2023-02-11T06:01:02.348Z,48.90
2023-02-11T06:03:30.260Z,46.37
2023-02-11T06:05:57.551Z,47.57
2023-02-11T06:08:25.376Z,43.40
2023-02-11T06:10:52.719Z,41.93
2023-02-11T06:13:21.353Z,48.53
2023-02-11T06:15:57.308Z,53.37
2023-02-11T06:18:24.687Z,47.87
2023-02-11T06:20:52.504Z,51.63
2023-02-11T06:23:19.783Z,44.47
2023-02-11T06:25:47.873Z,47.10
2023-02-11T06:28:17.522Z,50.73
2023-02-11T06:30:47.797Z,56.00
2023-02-11T06:33:15.158Z,48.67
2023-02-11T06:35:44.952Z,50.83
2023-02-11T06:38:13.656Z,46.67
2023-02-11T06:40:40.945Z,51.13
2023-02-11T06:43:10.735Z,42.47
2023-02-11T06:45:40.089Z,48.27
2023-02-11T06:48:12.472Z,53.67
2023-02-11T06:50:43.552Z,50.37
2023-02-11T06:53:12.824Z,55.80
2023-02-11T06:55:40.594Z,56.87
2023-02-11T06:58:07.983Z,50.67
2023-02-11T07:00:37.426Z,53.53
2023-02-11T07:03:06.970Z,56.67
2023-02-11T07:06:06.206Z,59.57
2023-02-11T07:08:41.173Z,53.43
2023-02-11T07:11:24.346Z,50.80
2023-02-11T07:13:52.920Z,59.07
2023-02-11T07:16:23.976Z,59.17
2023-02-11T07:18:51.467Z,53.83
2023-02-11T07:21:22.884Z,56.00
2023-02-11T07:23:52.081Z,65.20
2023-02-11T07:26:25.393Z,62.50
2023-02-11T07:28:55.645Z,66.10
2023-02-11T07:31:25.537Z,55.07
2023-02-11T07:33:56.520Z,63.27
2023-02-11T07:36:25.966Z,61.50
2023-02-11T07:38:54.155Z,63.20
2023-02-11T07:41:22.798Z,62.77
2023-02-11T07:43:50.576Z,66.37
2023-02-11T07:46:23.843Z,65.50
2023-02-11T07:48:54.447Z,63.87
2023-02-11T07:51:26.322Z,66.67
2023-02-11T07:53:58.683Z,69.57
2023-02-11T07:56:31.603Z,62.57
2023-02-11T07:59:03.624Z,71.80
2023-02-11T08:01:34.293Z,72.00
2023-02-11T08:04:04.870Z,69.53
2023-02-11T08:06:35.260Z,64.93
2023-02-11T08:09:15.149Z,69.17
2023-02-11T08:11:45.001Z,72.77
2023-02-11T08:14:12.929Z,68.83
2023-02-11T08:16:42.840Z,71.17
2023-02-11T08:19:14.567Z,74.97
2023-02-11T08:21:42.548Z,74.43
2023-02-11T08:24:10.612Z,71.13
2023-02-11T08:26:39.616Z,74.23
2023-02-11T08:29:12.190Z,74.20
2023-02-11T08:31:43.117Z,71.17
2023-02-11T08:34:15.245Z,83.63
2023-02-11T08:36:45.476Z,76.83
2023-02-11T08:39:21.408Z,75.23
2023-02-11T08:41:51.806Z,77.70
2023-02-11T08:44:24.219Z,75.43
2023-02-11T08:46:55.023Z,79.63
2023-02-11T08:49:24.152Z,76.03
2023-02-11T08:51:51.940Z,72.67
2023-02-11T08:54:27.315Z,83.80
2023-02-11T08:56:57.935Z,75.93
2023-02-11T08:59:29.219Z,69.20
2023-02-11T09:01:58.143Z,72.20
2023-02-11T09:04:25.671Z,80.13
2023-02-11T09:06:54.101Z,84.03
2023-02-11T09:09:26.451Z,74.27
2023-02-11T09:11:57.225Z,71.27
2023-02-11T09:14:25.839Z,77.20
2023-02-11T09:16:53.637Z,78.23
2023-02-11T09:19:21.569Z,75.70
2023-02-11T09:21:49.152Z,72.20
2023-02-11T09:24:18.450Z,73.40
2023-02-11T09:26:45.824Z,78.10
2023-02-11T09:29:14.324Z,71.63
2023-02-11T09:31:48.361Z,77.63
2023-02-11T09:34:20.942Z,76.57
2023-02-11T09:36:52.722Z,80.23
2023-02-11T09:39:21.823Z,78.07
2023-02-11T09:42:18.314Z,83.13
2023-02-11T09:44:47.221Z,74.50
2023-02-11T09:47:26.442Z,79.93
2023-02-11T09:49:58.481Z,76.33
2023-02-11T09:52:31.363Z,74.63
2023-02-11T09:55:00.948Z,82.03
2023-02-11T09:57:33.857Z,78.47
2023-02-11T10:00:03.182Z,72.53
2023-02-11T10:02:50.338Z,82.37
2023-02-11T10:05:39.146Z,80.43
2023-02-11T10:08:16.931Z,79.03
2023-02-11T10:10:55.868Z,84.40
2023-02-11T10:13:27.260Z,88.57
2023-02-11T10:16:05.253Z,87.33
2023-02-11T10:18:42.519Z,85.03
2023-02-11T10:21:09.823Z,88.07
2023-02-11T10:23:40.249Z,85.33
2023-02-11T10:26:29.197Z,84.67
2023-02-11T10:29:00.644Z,85.70
2023-02-11T10:31:44.249Z,85.87
2023-02-11T10:34:14.110Z,86.53
2023-02-11T10:36:44.490Z,85.07
2023-02-11T10:39:22.939Z,88.77
2023-02-11T10:41:54.196Z,82.57
2023-02-11T10:44:24.431Z,83.83
2023-02-11T10:46:53.156Z,85.23
2023-02-11T10:49:39.293Z,86.33
2023-02-11T10:52:37.214Z,88.50
2023-02-11T10:55:10.375Z,88.70
2023-02-11T10:57:46.144Z,87.77
2023-02-11T11:00:19.333Z,89.87
2023-02-11T11:02:49.280Z,93.70
2023-02-11T11:05:21.703Z,94.07
2023-02-11T11:08:05.165Z,86.97
2023-02-11T11:10:44.035Z,84.33
2023-02-11T11:13:26.101Z,90.83
2023-02-11T11:16:12.899Z,88.17
2023-02-11T11:18:44.105Z,95.87
2023-02-11T11:21:22.864Z,90.43
2023-02-11T11:23:55.967Z,99.93
2023-02-11T11:26:31.250Z,90.43
2023-02-11T11:29:03.397Z,101.27
2023-02-11T11:31:35.148Z,99.53
2023-02-11T11:34:25.052Z,100.67
2023-02-11T11:36:54.812Z,93.93
2023-02-11T11:39:41.267Z,99.87
2023-02-11T11:45:27.593Z,105.70
2023-02-11T11:48:07.139Z,100.30
2023-02-11T11:50:44.584Z,103.53
2023-02-11T11:53:25.494Z,110.50
2023-02-11T11:55:58.580Z,103.00
2023-02-11T11:58:29.398Z,98.27
2023-02-11T12:01:11.136Z,108.37
2023-02-11T12:03:58.152Z,108.93
2023-02-11T12:06:29.563Z,111.80
2023-02-11T12:09:12.589Z,97.10
2023-02-11T12:11:58.625Z,108.40
2023-02-11T12:14:30.777Z,105.23
2023-02-11T12:17:02.435Z,113.73
2023-02-11T12:19:30.792Z,99.23
2023-02-11T12:22:02.295Z,109.97
2023-02-11T12:24:29.723Z,112.87
2023-02-11T12:27:08.117Z,105.77
2023-02-11T12:29:46.136Z,107.57
2023-02-11T12:32:33.480Z,114.97
2023-02-11T12:35:20.432Z,100.60
2023-02-11T12:38:08.931Z,111.47
2023-02-11T12:40:42.862Z,120.40
2023-02-11T12:43:27.245Z,117.30
2023-02-11T12:45:55.650Z,115.57
2023-02-11T12:48:23.085Z,116.97
2023-02-11T12:50:59.383Z,108.27
2023-02-11T12:53:34.656Z,100.37
2023-02-11T12:56:17.045Z,115.63
2023-02-11T12:58:50.945Z,115.57
2023-02-11T13:01:30.899Z,108.13
2023-02-11T13:04:12.829Z,109.93
2023-02-11T13:06:57.451Z,106.43
2023-02-11T13:09:40.401Z,113.63
2023-02-11T13:12:32.519Z,111.30
2023-02-11T13:15:03.063Z,106.93
2023-02-11T13:17:35.791Z,116.90
2023-02-11T13:20:10.268Z,118.10
2023-02-11T13:22:48.161Z,119.23
2023-02-11T13:25:36.576Z,112.77
2023-02-11T13:28:18.489Z,112.50
2023-02-11T13:30:52.812Z,111.03
2023-02-11T13:33:22.161Z,114.23
2023-02-11T13:36:09.744Z,115.60
2023-02-11T13:38:39.991Z,115.40
2023-02-11T13:41:16.634Z,122.13
2023-02-11T13:43:45.385Z,116.40
2023-02-11T13:46:14.181Z,111.63
2023-02-11T13:48:48.597Z,116.63
2023-02-11T13:51:17.101Z,114.80
2023-02-11T13:53:54.259Z,119.17
2023-02-11T13:56:29.657Z,116.90
2023-02-11T13:58:59.608Z,113.20
2023-02-11T14:02:09.771Z,119.57
2023-02-11T14:04:55.981Z,120.93
2023-02-11T14:07:45.033Z,113.40
2023-02-11T14:10:45.860Z,120.13
2023-02-11T14:13:25.779Z,127.93
2023-02-11T14:16:22.591Z,124.80
2023-02-11T14:18:55.539Z,124.33
2023-02-11T14:21:37.821Z,117.47
2023-02-11T14:24:05.378Z,126.70
2023-02-11T14:26:42.628Z,116.67
2023-02-11T14:29:09.909Z,118.87
2023-02-11T14:31:45.676Z,111.57
2023-02-11T14:34:31.507Z,106.43
2023-02-11T14:37:18.931Z,107.60
2023-02-11T14:40:00.669Z,107.40
2023-02-11T14:42:31.284Z,103.97
2023-02-11T14:45:05.404Z,103.03
2023-02-11T14:47:39.138Z,110.67
2023-02-11T14:50:16.677Z,108.47
2023-02-11T14:52:47.331Z,104.60
2023-02-11T14:55:36.543Z,105.77
2023-02-11T14:58:21.018Z,103.30
2023-02-11T15:01:20.078Z,105.57
2023-02-11T15:03:49.610Z,101.63
2023-02-11T15:06:25.428Z,102.23
2023-02-11T15:08:57.401Z,102.87
2023-02-11T15:11:34.180Z,108.90
2023-02-11T15:14:09.909Z,100.03
2023-02-11T15:16:44.118Z,103.30
2023-02-11T15:19:58.391Z,107.30
2023-02-11T15:22:29.588Z,105.30
2023-02-11T15:25:05.002Z,105.00
2023-02-11T15:27:46.682Z,107.73
2023-02-11T15:30:23.121Z,112.03
2023-02-11T15:32:51.211Z,113.07
2023-02-11T15:35:19.420Z,109.73
2023-02-11T15:37:50.673Z,106.60
2023-02-11T15:40:23.051Z,105.80
2023-02-11T15:43:09.329Z,110.57
2023-02-11T15:45:41.812Z,101.63
2023-02-11T15:48:20.470Z,102.63
2023-02-11T15:50:55.545Z,111.93
2023-02-11T15:53:23.535Z,100.70
2023-02-11T15:55:52.539Z,103.70
2023-02-11T15:58:20.213Z,101.37
2023-02-11T16:00:49.811Z,100.20
2023-02-11T16:03:29.791Z,97.07
2023-02-11T16:05:57.207Z,100.03
2023-02-11T16:08:26.116Z,99.07
2023-02-11T16:10:58.788Z,97.47
2023-02-11T16:13:33.709Z,94.27
2023-02-11T16:16:04.842Z,86.33
2023-02-11T16:18:40.210Z,94.93
2023-02-11T16:21:14.714Z,99.30
2023-02-11T16:23:42.480Z,92.83
2023-02-11T16:26:30.289Z,94.67
2023-02-11T16:29:23.772Z,90.43
2023-02-11T16:31:59.525Z,91.07
2023-02-11T16:34:26.912Z,90.10
2023-02-11T16:36:55.616Z,87.53
2023-02-11T16:39:23.761Z,83.27
2023-02-11T16:41:51.989Z,84.10
2023-02-11T16:44:19.627Z,86.90
2023-02-11T16:46:49.180Z,83.13
2023-02-11T16:49:23.895Z,88.43
2023-02-11T16:51:57.299Z,83.97
2023-02-11T16:54:35.817Z,81.33
2023-02-11T16:57:11.704Z,83.73
2023-02-11T16:59:42.270Z,80.97
2023-02-11T17:02:25.237Z,82.50
2023-02-11T17:04:57.881Z,77.73
2023-02-11T17:07:27.086Z,78.87
2023-02-11T17:09:55.870Z,80.40
2023-02-11T17:12:26.746Z,79.30
2023-02-11T17:14:54.817Z,80.63
2023-02-11T17:17:24.109Z,82.20
2023-02-11T17:22:41.601Z,78.23
2023-02-11T17:25:10.792Z,80.63
2023-02-11T17:27:39.867Z,78.50
2023-02-11T17:30:07.537Z,75.90
2023-02-11T17:32:35.852Z,73.03
2023-02-11T17:35:08.676Z,73.60
2023-02-11T17:37:36.193Z,75.77
2023-02-11T17:40:09.374Z,67.07
2023-02-11T17:42:39.946Z,67.80
2023-02-11T17:45:08.506Z,70.73
2023-02-11T17:47:36.542Z,65.47
2023-02-11T17:50:08.685Z,63.67
2023-02-11T17:52:37.847Z,56.63
2023-02-11T17:55:08.221Z,59.00
2023-02-11T17:57:35.903Z,62.90
2023-02-11T18:02:45.744Z,57.57
2023-02-11T18:05:20.188Z,60.40
2023-02-11T18:08:10.436Z,52.13
2023-02-11T18:10:40.189Z,55.43
2023-02-11T18:13:13.074Z,52.87
2023-02-11T18:15:41.606Z,56.87
2023-02-11T18:18:11.107Z,49.60
2023-02-11T18:20:38.594Z,49.13
2023-02-11T18:23:09.764Z,50.17
2023-02-11T18:25:37.319Z,46.97
2023-02-11T18:28:04.715Z,46.27
2023-02-11T18:30:34.712Z,51.20
2023-02-11T18:33:07.476Z,47.07
2023-02-11T18:35:38.160Z,47.30
2023-02-11T18:38:07.148Z,47.23
2023-02-11T18:40:38.387Z,45.20
2023-02-11T18:43:07.130Z,44.17
2023-02-11T18:45:35.099Z,47.23
2023-02-11T18:48:06.245Z,42.23
2023-02-11T18:50:33.815Z,40.50
2023-02-11T18:53:02.449Z,47.07
2023-02-11T18:55:32.001Z,41.83
2023-02-11T18:57:59.482Z,44.57
2023-02-11T19:00:28.550Z,40.43
2023-02-11T19:02:55.857Z,41.47
2023-02-11T19:05:23.191Z,42.60
2023-02-11T19:07:51.848Z,51.80
2023-02-11T19:10:20.240Z,44.30
2023-02-11T19:12:48.703Z,41.40
2023-02-11T19:15:16.467Z,42.67
2023-02-11T19:17:43.750Z,42.40
2023-02-11T19:20:11.437Z,38.60
2023-02-11T19:22:38.868Z,38.10
2023-02-11T19:25:07.286Z,42.17
2023-02-11T19:27:34.944Z,39.70
2023-02-11T19:30:02.464Z,46.70
2023-02-11T19:32:31.042Z,41.07
2023-02-11T19:34:58.414Z,33.70
2023-02-11T19:37:27.415Z,40.87
2023-02-11T19:39:54.761Z,39.03
2023-02-11T19:42:22.387Z,32.63
2023-02-11T19:44:49.767Z,36.83
2023-02-11T19:47:18.345Z,37.67
2023-02-11T19:49:45.724Z,36.70
2023-02-11T19:52:13.239Z,38.00
2023-02-11T19:54:40.574Z,36.53
2023-02-11T19:57:08.004Z,36.63
2023-02-11T19:59:35.428Z,38.17
2023-02-11T20:02:04.270Z,37.47
2023-02-11T20:04:34.936Z,33.83
2023-02-11T20:07:02.788Z,40.53
2023-02-11T20:09:31.821Z,33.00
2023-02-11T20:12:00.827Z,37.57
2023-02-11T20:14:28.366Z,33.50
2023-02-11T20:16:55.748Z,33.40
2023-02-11T20:19:27.074Z,34.60
2023-02-11T20:21:58.053Z,34.50
2023-02-11T20:24:26.520Z,39.40
2023-02-11T20:26:57.344Z,40.87
2023-02-11T20:29:32.053Z,32.43
2023-02-11T20:32:01.627Z,34.20
2023-02-11T20:34:34.653Z,34.07
2023-02-11T20:37:05.863Z,32.27
2023-02-11T20:39:33.911Z,34.77
2023-02-11T20:42:01.721Z,35.97
2023-02-11T20:44:29.725Z,31.67
2023-02-11T20:46:57.300Z,33.50
2023-02-11T20:49:25.564Z,34.53
2023-02-11T20:51:54.162Z,38.90
2023-02-11T20:54:24.145Z,35.70
2023-02-11T20:56:52.853Z,31.90
2023-02-11T20:59:24.201Z,36.90
2023-02-11T21:01:56.035Z,44.70
2023-02-11T21:04:25.832Z,32.53
2023-02-11T21:06:54.983Z,31.57
2023-02-11T21:09:25.031Z,32.07
2023-02-11T21:11:53.964Z,33.77
2023-02-11T21:14:26.077Z,35.43
2023-02-11T21:16:55.872Z,33.47
2023-02-11T21:19:27.264Z,32.30
2023-02-11T21:21:57.369Z,31.20
2023-02-11T21:24:25.012Z,23.83
2023-02-11T21:26:52.353Z,19.10
2023-02-11T21:29:19.671Z,13.27
2023-02-11T21:31:47.656Z,7.93
2023-02-11T21:34:16.251Z,10.23
2023-02-11T21:36:45.649Z,9.07
2023-02-11T21:39:13.792Z,7.67
2023-02-11T21:41:43.649Z,11.40
2023-02-11T21:44:11.252Z,8.93
2023-02-11T21:46:38.688Z,9.03
2023-02-11T21:49:06.193Z,6.87
2023-02-11T21:51:33.559Z,10.63
2023-02-11T21:54:03.508Z,6.20
2023-02-11T21:56:35.362Z,4.67
2023-02-11T21:59:05.411Z,7.37
2023-02-11T22:01:35.624Z,6.07
2023-02-11T22:04:03.435Z,4.53
2023-02-11T22:06:35.633Z,3.70
2023-02-11T22:09:05.452Z,6.53
2023-02-11T22:11:32.906Z,7.10
2023-02-11T22:14:00.482Z,6.87
2023-02-11T22:16:28.746Z,7.17
2023-02-11T22:19:01.342Z,7.77
2023-02-11T22:21:33.258Z,7.13
2023-02-11T22:24:00.600Z,5.50
2023-02-11T22:26:29.061Z,6.03
2023-02-11T22:28:56.736Z,6.90
2023-02-11T22:31:29.093Z,6.80
2023-02-11T22:33:57.448Z,9.50
2023-02-11T22:36:27.548Z,6.50
2023-02-11T22:38:56.120Z,5.27
2023-02-11T22:41:25.983Z,4.47
2023-02-11T22:43:54.643Z,9.63
2023-02-11T22:46:23.223Z,5.13
2023-02-11T22:48:50.699Z,5.30
2023-02-11T22:51:20.824Z,6.13
2023-02-11T22:53:55.851Z,4.63
2023-02-11T22:56:23.408Z,4.43
2023-02-11T22:58:53.717Z,5.63
2023-02-11T23:01:21.308Z,4.07
2023-02-11T23:03:48.694Z,3.23
2023-02-11T23:06:16.097Z,4.77
2023-02-11T23:08:43.554Z,2.53
2023-02-11T23:11:13.303Z,4.43
2023-02-11T23:13:41.466Z,3.03
2023-02-11T23:16:16.438Z,4.23
2023-02-11T23:18:44.564Z,4.83
2023-02-11T23:21:13.586Z,4.47
2023-02-11T23:23:41.192Z,4.00
2023-02-11T23:26:12.780Z,3.53
